Terminal Aerodrome Forecast
Issued by NWS Wilmington, OH

Current Version | Previous Version | Text Only | Print | Product List | Glossary Off
Versions: 1 2 3 4 5 6 7 8 9 10 11 12 13 14 15 16 17 18 19

000
FTUS41 KILN 271100
TAFCMH
TAF
KCMH 271131Z 2712/2812 29006KT P6SM SCT025 BKN035
      TEMPO 2712/2716 5SM -SN BKN025
     FM280000 03003KT P6SM FEW035 SCT150=

USA.gov is the U.S. government's official web portal to all federal, state and local government web resources and services.